sensor_id;sensor_type;location;lat;lon;timestamp;P1;durP1;ratioP1;P2;durP2;ratioP2
43664;SDS011;29263;48.172;11.484;2023-02-18T00:00:07;4.57;;;1.67;;
43664;SDS011;29263;48.172;11.484;2023-02-18T00:02:37;5.82;;;1.88;;
43664;SDS011;29263;48.172;11.484;2023-02-18T00:05:03;2.83;;;1.70;;
43664;SDS011;29263;48.172;11.484;2023-02-18T00:07:33;1.75;;;1.38;;
43664;SDS011;29263;48.172;11.484;2023-02-18T00:09:59;3.20;;;1.63;;
43664;SDS011;29263;48.172;11.484;2023-02-18T00:12:25;5.38;;;2.17;;
43664;SDS011;29263;48.172;11.484;2023-02-18T00:14:51;4.03;;;1.80;;
43664;SDS011;29263;48.172;11.484;2023-02-18T00:17:16;3.97;;;1.85;;
43664;SDS011;29263;48.172;11.484;2023-02-18T00:19:42;2.80;;;1.90;;
43664;SDS011;29263;48.172;11.484;2023-02-18T00:22:07;4.17;;;1.80;;
43664;SDS011;29263;48.172;11.484;2023-02-18T00:24:33;3.53;;;1.85;;
43664;SDS011;29263;48.172;11.484;2023-02-18T00:26:59;3.40;;;1.45;;
43664;SDS011;29263;48.172;11.484;2023-02-18T00:29:24;3.90;;;2.00;;
43664;SDS011;29263;48.172;11.484;2023-02-18T00:31:53;3.17;;;1.67;;
43664;SDS011;29263;48.172;11.484;2023-02-18T00:34:18;3.78;;;1.70;;
43664;SDS011;29263;48.172;11.484;2023-02-18T00:36:44;2.60;;;1.60;;
43664;SDS011;29263;48.172;11.484;2023-02-18T00:39:10;2.00;;;1.35;;
43664;SDS011;29263;48.172;11.484;2023-02-18T00:41:36;5.03;;;1.42;;
43664;SDS011;29263;48.172;11.484;2023-02-18T00:44:02;1.63;;;1.33;;
43664;SDS011;29263;48.172;11.484;2023-02-18T00:46:29;2.35;;;1.30;;
43664;SDS011;29263;48.172;11.484;2023-02-18T00:48:55;2.97;;;1.50;;
43664;SDS011;29263;48.172;11.484;2023-02-18T00:51:21;2.83;;;1.38;;
43664;SDS011;29263;48.172;11.484;2023-02-18T00:53:49;3.28;;;1.42;;
43664;SDS011;29263;48.172;11.484;2023-02-18T00:56:15;2.20;;;1.50;;
43664;SDS011;29263;48.172;11.484;2023-02-18T00:58:41;3.50;;;1.67;;
43664;SDS011;29263;48.172;11.484;2023-02-18T01:01:07;1.80;;;1.47;;
43664;SDS011;29263;48.172;11.484;2023-02-18T01:03:34;1.92;;;1.20;;
43664;SDS011;29263;48.172;11.484;2023-02-18T01:06:01;3.85;;;1.40;;
43664;SDS011;29263;48.172;11.484;2023-02-18T01:08:27;3.08;;;1.40;;
43664;SDS011;29263;48.172;11.484;2023-02-18T01:10:54;1.73;;;1.10;;
43664;SDS011;29263;48.172;11.484;2023-02-18T01:13:21;3.95;;;1.52;;
43664;SDS011;29263;48.172;11.484;2023-02-18T01:15:47;2.85;;;1.40;;
43664;SDS011;29263;48.172;11.484;2023-02-18T01:18:13;1.70;;;1.13;;
43664;SDS011;29263;48.172;11.484;2023-02-18T01:20:40;2.10;;;1.50;;
43664;SDS011;29263;48.172;11.484;2023-02-18T01:23:07;2.22;;;1.33;;
43664;SDS011;29263;48.172;11.484;2023-02-18T01:25:33;2.35;;;1.20;;
43664;SDS011;29263;48.172;11.484;2023-02-18T01:27:59;2.55;;;1.35;;
43664;SDS011;29263;48.172;11.484;2023-02-18T01:30:26;2.70;;;1.23;;
43664;SDS011;29263;48.172;11.484;2023-02-18T01:32:52;2.70;;;1.60;;
43664;SDS011;29263;48.172;11.484;2023-02-18T01:35:18;2.50;;;1.40;;
43664;SDS011;29263;48.172;11.484;2023-02-18T01:37:44;3.28;;;1.50;;
43664;SDS011;29263;48.172;11.484;2023-02-18T01:40:11;2.03;;;1.30;;
43664;SDS011;29263;48.172;11.484;2023-02-18T01:42:38;1.92;;;1.20;;
43664;SDS011;29263;48.172;11.484;2023-02-18T01:51:06;3.60;;;1.47;;
43664;SDS011;29263;48.172;11.484;2023-02-18T01:53:46;2.47;;;1.60;;
43664;SDS011;29263;48.172;11.484;2023-02-18T01:56:27;2.03;;;1.13;;
43664;SDS011;29263;48.172;11.484;2023-02-18T01:58:56;2.97;;;1.20;;
43664;SDS011;29263;48.172;11.484;2023-02-18T02:01:25;3.13;;;1.58;;
43664;SDS011;29263;48.172;11.484;2023-02-18T02:03:51;2.03;;;1.47;;
43664;SDS011;29263;48.172;11.484;2023-02-18T02:06:17;3.67;;;1.57;;
43664;SDS011;29263;48.172;11.484;2023-02-18T02:08:45;2.23;;;1.70;;
43664;SDS011;29263;48.172;11.484;2023-02-18T02:11:24;3.03;;;1.77;;
43664;SDS011;29263;48.172;11.484;2023-02-18T02:14:19;4.22;;;1.50;;
43664;SDS011;29263;48.172;11.484;2023-02-18T02:17:02;4.27;;;2.03;;
43664;SDS011;29263;48.172;11.484;2023-02-18T02:30:43;4.63;;;1.67;;
43664;SDS011;29263;48.172;11.484;2023-02-18T02:46:51;2.47;;;1.10;;
43664;SDS011;29263;48.172;11.484;2023-02-18T02:49:45;3.38;;;1.20;;
43664;SDS011;29263;48.172;11.484;2023-02-18T02:52:48;1.70;;;1.30;;
43664;SDS011;29263;48.172;11.484;2023-02-18T02:55:10;2.65;;;1.20;;
43664;SDS011;29263;48.172;11.484;2023-02-18T02:57:44;2.67;;;1.38;;
43664;SDS011;29263;48.172;11.484;2023-02-18T03:00:19;1.57;;;1.30;;
43664;SDS011;29263;48.172;11.484;2023-02-18T03:03:10;1.67;;;1.27;;
43664;SDS011;29263;48.172;11.484;2023-02-18T03:11:32;2.73;;;1.30;;
43664;SDS011;29263;48.172;11.484;2023-02-18T03:14:20;1.57;;;1.00;;
43664;SDS011;29263;48.172;11.484;2023-02-18T03:16:56;1.50;;;0.90;;
43664;SDS011;29263;48.172;11.484;2023-02-18T03:19:36;1.33;;;0.83;;
43664;SDS011;29263;48.172;11.484;2023-02-18T03:22:10;1.33;;;0.93;;
43664;SDS011;29263;48.172;11.484;2023-02-18T03:24:46;1.35;;;1.15;;
43664;SDS011;29263;48.172;11.484;2023-02-18T03:27:20;2.15;;;1.00;;
43664;SDS011;29263;48.172;11.484;2023-02-18T03:30:00;1.60;;;0.80;;
43664;SDS011;29263;48.172;11.484;2023-02-18T03:32:30;1.27;;;0.98;;
43664;SDS011;29263;48.172;11.484;2023-02-18T03:35:02;0.90;;;0.70;;
43664;SDS011;29263;48.172;11.484;2023-02-18T03:37:31;1.40;;;0.90;;
43664;SDS011;29263;48.172;11.484;2023-02-18T03:40:03;1.67;;;0.73;;
43664;SDS011;29263;48.172;11.484;2023-02-18T03:42:29;1.00;;;0.90;;
43664;SDS011;29263;48.172;11.484;2023-02-18T03:44:55;1.67;;;0.90;;
43664;SDS011;29263;48.172;11.484;2023-02-18T03:47:20;2.60;;;1.00;;
43664;SDS011;29263;48.172;11.484;2023-02-18T03:49:47;2.07;;;1.00;;
43664;SDS011;29263;48.172;11.484;2023-02-18T03:52:12;1.00;;;0.90;;
43664;SDS011;29263;48.172;11.484;2023-02-18T03:54:38;1.80;;;1.10;;
43664;SDS011;29263;48.172;11.484;2023-02-18T03:57:03;1.67;;;1.07;;
43664;SDS011;29263;48.172;11.484;2023-02-18T03:59:29;1.53;;;1.00;;
43664;SDS011;29263;48.172;11.484;2023-02-18T04:01:54;1.08;;;0.90;;
43664;SDS011;29263;48.172;11.484;2023-02-18T04:04:20;1.10;;;1.00;;
43664;SDS011;29263;48.172;11.484;2023-02-18T04:06:46;2.63;;;0.80;;
43664;SDS011;29263;48.172;11.484;2023-02-18T04:09:11;1.30;;;0.97;;
43664;SDS011;29263;48.172;11.484;2023-02-18T04:11:37;1.00;;;0.88;;
43664;SDS011;29263;48.172;11.484;2023-02-18T04:14:04;1.20;;;1.00;;
43664;SDS011;29263;48.172;11.484;2023-02-18T04:16:30;2.07;;;1.53;;
43664;SDS011;29263;48.172;11.484;2023-02-18T04:18:56;1.20;;;1.07;;
43664;SDS011;29263;48.172;11.484;2023-02-18T04:21:22;1.60;;;1.43;;
43664;SDS011;29263;48.172;11.484;2023-02-18T04:23:47;1.50;;;0.90;;
43664;SDS011;29263;48.172;11.484;2023-02-18T04:26:13;1.43;;;1.13;;
43664;SDS011;29263;48.172;11.484;2023-02-18T04:28:39;1.83;;;1.00;;
43664;SDS011;29263;48.172;11.484;2023-02-18T04:31:04;2.63;;;1.67;;
43664;SDS011;29263;48.172;11.484;2023-02-18T04:33:30;2.03;;;1.20;;
43664;SDS011;29263;48.172;11.484;2023-02-18T04:35:55;1.47;;;1.10;;
43664;SDS011;29263;48.172;11.484;2023-02-18T04:38:21;2.13;;;1.17;;
43664;SDS011;29263;48.172;11.484;2023-02-18T04:40:47;2.83;;;1.15;;
43664;SDS011;29263;48.172;11.484;2023-02-18T04:43:12;1.77;;;1.20;;
43664;SDS011;29263;48.172;11.484;2023-02-18T04:45:41;1.30;;;1.00;;
43664;SDS011;29263;48.172;11.484;2023-02-18T04:48:09;1.83;;;0.90;;
43664;SDS011;29263;48.172;11.484;2023-02-18T04:50:35;1.80;;;1.10;;
43664;SDS011;29263;48.172;11.484;2023-02-18T04:53:01;1.35;;;1.10;;
43664;SDS011;29263;48.172;11.484;2023-02-18T04:55:26;1.23;;;0.87;;
43664;SDS011;29263;48.172;11.484;2023-02-18T04:57:52;3.20;;;1.17;;
43664;SDS011;29263;48.172;11.484;2023-02-18T05:00:18;1.27;;;0.90;;
43664;SDS011;29263;48.172;11.484;2023-02-18T05:02:44;1.33;;;1.07;;
43664;SDS011;29263;48.172;11.484;2023-02-18T05:05:10;2.03;;;1.17;;
43664;SDS011;29263;48.172;11.484;2023-02-18T05:07:37;1.17;;;0.93;;
43664;SDS011;29263;48.172;11.484;2023-02-18T05:10:04;1.37;;;1.00;;
43664;SDS011;29263;48.172;11.484;2023-02-18T05:12:30;1.90;;;0.97;;
43664;SDS011;29263;48.172;11.484;2023-02-18T05:14:56;1.37;;;0.80;;
43664;SDS011;29263;48.172;11.484;2023-02-18T05:17:21;1.27;;;0.65;;
43664;SDS011;29263;48.172;11.484;2023-02-18T05:19:47;0.80;;;0.70;;
43664;SDS011;29263;48.172;11.484;2023-02-18T05:22:12;2.40;;;0.93;;
43664;SDS011;29263;48.172;11.484;2023-02-18T05:24:38;1.70;;;0.87;;
43664;SDS011;29263;48.172;11.484;2023-02-18T05:27:04;1.00;;;0.90;;
43664;SDS011;29263;48.172;11.484;2023-02-18T05:29:29;1.33;;;0.80;;
43664;SDS011;29263;48.172;11.484;2023-02-18T05:31:55;1.07;;;0.97;;
43664;SDS011;29263;48.172;11.484;2023-02-18T05:34:21;2.87;;;0.80;;
43664;SDS011;29263;48.172;11.484;2023-02-18T05:36:46;1.70;;;0.80;;
43664;SDS011;29263;48.172;11.484;2023-02-18T05:39:12;0.93;;;0.70;;
43664;SDS011;29263;48.172;11.484;2023-02-18T05:41:37;0.50;;;0.50;;
43664;SDS011;29263;48.172;11.484;2023-02-18T05:44:03;0.60;;;0.60;;
43664;SDS011;29263;48.172;11.484;2023-02-18T05:46:47;0.90;;;0.57;;
43664;SDS011;29263;48.172;11.484;2023-02-18T05:49:13;0.47;;;0.40;;
43664;SDS011;29263;48.172;11.484;2023-02-18T05:51:39;0.53;;;0.50;;
43664;SDS011;29263;48.172;11.484;2023-02-18T05:54:04;1.23;;;0.50;;
43664;SDS011;29263;48.172;11.484;2023-02-18T05:56:31;0.30;;;0.30;;
43664;SDS011;29263;48.172;11.484;2023-02-18T05:58:56;0.60;;;0.60;;
43664;SDS011;29263;48.172;11.484;2023-02-18T06:01:22;0.60;;;0.40;;
43664;SDS011;29263;48.172;11.484;2023-02-18T06:03:48;0.80;;;0.50;;
43664;SDS011;29263;48.172;11.484;2023-02-18T06:06:13;0.40;;;0.40;;
43664;SDS011;29263;48.172;11.484;2023-02-18T06:08:39;0.80;;;0.30;;
43664;SDS011;29263;48.172;11.484;2023-02-18T06:11:04;0.53;;;0.40;;
43664;SDS011;29263;48.172;11.484;2023-02-18T06:13:30;0.50;;;0.43;;
43664;SDS011;29263;48.172;11.484;2023-02-18T06:15:56;0.27;;;0.27;;
43664;SDS011;29263;48.172;11.484;2023-02-18T06:18:21;0.40;;;0.33;;
43664;SDS011;29263;48.172;11.484;2023-02-18T06:20:47;0.50;;;0.50;;
43664;SDS011;29263;48.172;11.484;2023-02-18T06:23:13;0.50;;;0.40;;
43664;SDS011;29263;48.172;11.484;2023-02-18T06:25:39;0.80;;;0.60;;
43664;SDS011;29263;48.172;11.484;2023-02-18T06:28:05;0.70;;;0.50;;
43664;SDS011;29263;48.172;11.484;2023-02-18T06:30:31;0.43;;;0.33;;
43664;SDS011;29263;48.172;11.484;2023-02-18T06:32:57;1.07;;;0.40;;
43664;SDS011;29263;48.172;11.484;2023-02-18T06:35:22;0.93;;;0.40;;
43664;SDS011;29263;48.172;11.484;2023-02-18T06:37:48;0.70;;;0.40;;
43664;SDS011;29263;48.172;11.484;2023-02-18T06:40:14;0.50;;;0.40;;
43664;SDS011;29263;48.172;11.484;2023-02-18T06:42:39;0.50;;;0.40;;
43664;SDS011;29263;48.172;11.484;2023-02-18T06:45:05;0.60;;;0.40;;
43664;SDS011;29263;48.172;11.484;2023-02-18T06:47:31;0.70;;;0.30;;
43664;SDS011;29263;48.172;11.484;2023-02-18T06:49:57;0.30;;;0.20;;
43664;SDS011;29263;48.172;11.484;2023-02-18T06:52:23;0.40;;;0.40;;
43664;SDS011;29263;48.172;11.484;2023-02-18T06:54:48;0.52;;;0.28;;
43664;SDS011;29263;48.172;11.484;2023-02-18T06:57:14;0.40;;;0.30;;
43664;SDS011;29263;48.172;11.484;2023-02-18T06:59:40;0.30;;;0.20;;
43664;SDS011;29263;48.172;11.484;2023-02-18T07:02:05;0.50;;;0.40;;
43664;SDS011;29263;48.172;11.484;2023-02-18T07:04:31;0.77;;;0.40;;
43664;SDS011;29263;48.172;11.484;2023-02-18T07:06:57;1.80;;;0.40;;
43664;SDS011;29263;48.172;11.484;2023-02-18T07:09:22;0.33;;;0.23;;
43664;SDS011;29263;48.172;11.484;2023-02-18T07:11:48;0.57;;;0.30;;
43664;SDS011;29263;48.172;11.484;2023-02-18T07:14:13;0.20;;;0.20;;
43664;SDS011;29263;48.172;11.484;2023-02-18T07:16:39;0.20;;;0.20;;
43664;SDS011;29263;48.172;11.484;2023-02-18T07:19:05;0.50;;;0.30;;
43664;SDS011;29263;48.172;11.484;2023-02-18T07:21:30;1.98;;;0.30;;
43664;SDS011;29263;48.172;11.484;2023-02-18T07:23:56;0.65;;;0.40;;
43664;SDS011;29263;48.172;11.484;2023-02-18T07:26:21;0.43;;;0.40;;
43664;SDS011;29263;48.172;11.484;2023-02-18T07:28:47;1.85;;;0.40;;
43664;SDS011;29263;48.172;11.484;2023-02-18T07:31:12;0.98;;;0.82;;
43664;SDS011;29263;48.172;11.484;2023-02-18T07:33:38;0.55;;;0.47;;
43664;SDS011;29263;48.172;11.484;2023-02-18T07:36:04;0.35;;;0.30;;
43664;SDS011;29263;48.172;11.484;2023-02-18T07:38:30;0.28;;;0.28;;
43664;SDS011;29263;48.172;11.484;2023-02-18T07:40:56;0.70;;;0.20;;
43664;SDS011;29263;48.172;11.484;2023-02-18T07:43:23;0.20;;;0.20;;
43664;SDS011;29263;48.172;11.484;2023-02-18T07:45:48;0.50;;;0.38;;
43664;SDS011;29263;48.172;11.484;2023-02-18T07:48:14;0.35;;;0.35;;
43664;SDS011;29263;48.172;11.484;2023-02-18T07:50:41;2.13;;;0.40;;
43664;SDS011;29263;48.172;11.484;2023-02-18T07:53:09;0.60;;;0.30;;
43664;SDS011;29263;48.172;11.484;2023-02-18T07:55:36;1.55;;;0.20;;
43664;SDS011;29263;48.172;11.484;2023-02-18T07:58:15;0.20;;;0.20;;
43664;SDS011;29263;48.172;11.484;2023-02-18T08:00:44;0.30;;;0.13;;
43664;SDS011;29263;48.172;11.484;2023-02-18T08:03:11;0.32;;;0.30;;
43664;SDS011;29263;48.172;11.484;2023-02-18T08:05:38;0.52;;;0.28;;
43664;SDS011;29263;48.172;11.484;2023-02-18T08:08:04;0.30;;;0.20;;
43664;SDS011;29263;48.172;11.484;2023-02-18T08:10:30;0.40;;;0.30;;
43664;SDS011;29263;48.172;11.484;2023-02-18T08:12:56;0.75;;;0.32;;
43664;SDS011;29263;48.172;11.484;2023-02-18T08:15:21;0.30;;;0.20;;
43664;SDS011;29263;48.172;11.484;2023-02-18T08:17:47;0.90;;;0.30;;
43664;SDS011;29263;48.172;11.484;2023-02-18T08:20:13;3.25;;;0.50;;
43664;SDS011;29263;48.172;11.484;2023-02-18T08:22:38;0.90;;;0.30;;
43664;SDS011;29263;48.172;11.484;2023-02-18T08:25:04;0.17;;;0.17;;
43664;SDS011;29263;48.172;11.484;2023-02-18T08:27:30;0.25;;;0.25;;
43664;SDS011;29263;48.172;11.484;2023-02-18T08:29:56;0.43;;;0.30;;
43664;SDS011;29263;48.172;11.484;2023-02-18T08:32:22;0.70;;;0.40;;
43664;SDS011;29263;48.172;11.484;2023-02-18T08:34:50;0.40;;;0.30;;
43664;SDS011;29263;48.172;11.484;2023-02-18T08:37:16;0.40;;;0.40;;
43664;SDS011;29263;48.172;11.484;2023-02-18T08:39:44;0.10;;;0.10;;
43664;SDS011;29263;48.172;11.484;2023-02-18T08:42:10;0.30;;;0.20;;
43664;SDS011;29263;48.172;11.484;2023-02-18T08:44:35;0.52;;;0.30;;
43664;SDS011;29263;48.172;11.484;2023-02-18T08:47:01;0.43;;;0.20;;
43664;SDS011;29263;48.172;11.484;2023-02-18T08:49:26;0.40;;;0.35;;
43664;SDS011;29263;48.172;11.484;2023-02-18T08:51:52;0.22;;;0.20;;
43664;SDS011;29263;48.172;11.484;2023-02-18T08:54:18;3.40;;;0.50;;
43664;SDS011;29263;48.172;11.484;2023-02-18T08:56:43;1.65;;;0.52;;
43664;SDS011;29263;48.172;11.484;2023-02-18T08:59:09;0.43;;;0.30;;
43664;SDS011;29263;48.172;11.484;2023-02-18T09:01:35;0.25;;;0.25;;
43664;SDS011;29263;48.172;11.484;2023-02-18T09:04:00;0.50;;;0.30;;
43664;SDS011;29263;48.172;11.484;2023-02-18T09:06:26;0.93;;;0.40;;
43664;SDS011;29263;48.172;11.484;2023-02-18T09:08:52;0.38;;;0.28;;
43664;SDS011;29263;48.172;11.484;2023-02-18T09:11:18;0.63;;;0.40;;
43664;SDS011;29263;48.172;11.484;2023-02-18T09:13:44;0.38;;;0.28;;
43664;SDS011;29263;48.172;11.484;2023-02-18T09:16:12;0.50;;;0.50;;
43664;SDS011;29263;48.172;11.484;2023-02-18T09:18:42;1.73;;;0.30;;
43664;SDS011;29263;48.172;11.484;2023-02-18T09:21:08;0.40;;;0.30;;
43664;SDS011;29263;48.172;11.484;2023-02-18T09:23:37;0.45;;;0.40;;
43664;SDS011;29263;48.172;11.484;2023-02-18T09:26:07;0.50;;;0.40;;
43664;SDS011;29263;48.172;11.484;2023-02-18T09:28:34;0.60;;;0.40;;
43664;SDS011;29263;48.172;11.484;2023-02-18T09:31:08;0.63;;;0.43;;
43664;SDS011;29263;48.172;11.484;2023-02-18T09:33:41;2.03;;;0.45;;
43664;SDS011;29263;48.172;11.484;2023-02-18T09:36:09;3.40;;;0.40;;
43664;SDS011;29263;48.172;11.484;2023-02-18T09:38:34;0.20;;;0.20;;
43664;SDS011;29263;48.172;11.484;2023-02-18T09:41:02;1.80;;;0.50;;
43664;SDS011;29263;48.172;11.484;2023-02-18T09:43:33;0.47;;;0.28;;
43664;SDS011;29263;48.172;11.484;2023-02-18T09:46:03;1.42;;;0.40;;
43664;SDS011;29263;48.172;11.484;2023-02-18T09:48:39;1.67;;;0.40;;
43664;SDS011;29263;48.172;11.484;2023-02-18T09:51:09;0.40;;;0.30;;
43664;SDS011;29263;48.172;11.484;2023-02-18T09:53:39;0.77;;;0.40;;
43664;SDS011;29263;48.172;11.484;2023-02-18T09:58:35;1.27;;;1.08;;
43664;SDS011;29263;48.172;11.484;2023-02-18T10:01:14;1.13;;;0.50;;
43664;SDS011;29263;48.172;11.484;2023-02-18T10:04:00;0.77;;;0.60;;
43664;SDS011;29263;48.172;11.484;2023-02-18T10:06:36;0.50;;;0.30;;
43664;SDS011;29263;48.172;11.484;2023-02-18T10:09:04;0.45;;;0.45;;
43664;SDS011;29263;48.172;11.484;2023-02-18T10:11:39;1.33;;;0.30;;
43664;SDS011;29263;48.172;11.484;2023-02-18T10:14:10;0.68;;;0.47;;
43664;SDS011;29263;48.172;11.484;2023-02-18T10:16:37;0.82;;;0.50;;
43664;SDS011;29263;48.172;11.484;2023-02-18T10:21:50;0.50;;;0.40;;
43664;SDS011;29263;48.172;11.484;2023-02-18T10:27:20;0.90;;;0.35;;
43664;SDS011;29263;48.172;11.484;2023-02-18T10:29:50;2.92;;;0.40;;
43664;SDS011;29263;48.172;11.484;2023-02-18T10:32:23;0.30;;;0.30;;
43664;SDS011;29263;48.172;11.484;2023-02-18T10:38:01;0.68;;;0.50;;
43664;SDS011;29263;48.172;11.484;2023-02-18T10:50:57;1.85;;;0.40;;
43664;SDS011;29263;48.172;11.484;2023-02-18T10:53:35;1.05;;;0.50;;
43664;SDS011;29263;48.172;11.484;2023-02-18T10:56:03;1.20;;;0.30;;
43664;SDS011;29263;48.172;11.484;2023-02-18T11:01:12;0.43;;;0.40;;
43664;SDS011;29263;48.172;11.484;2023-02-18T11:03:42;0.20;;;0.20;;
43664;SDS011;29263;48.172;11.484;2023-02-18T11:08:51;0.77;;;0.40;;
43664;SDS011;29263;48.172;11.484;2023-02-18T11:11:23;0.30;;;0.30;;
43664;SDS011;29263;48.172;11.484;2023-02-18T11:13:54;0.57;;;0.40;;
43664;SDS011;29263;48.172;11.484;2023-02-18T11:16:22;2.83;;;0.32;;
43664;SDS011;29263;48.172;11.484;2023-02-18T11:19:00;2.25;;;0.28;;
43664;SDS011;29263;48.172;11.484;2023-02-18T11:21:29;0.30;;;0.30;;
43664;SDS011;29263;48.172;11.484;2023-02-18T11:24:05;0.45;;;0.30;;
43664;SDS011;29263;48.172;11.484;2023-02-18T11:26:33;1.35;;;0.30;;
43664;SDS011;29263;48.172;11.484;2023-02-18T11:29:02;0.43;;;0.30;;
43664;SDS011;29263;48.172;11.484;2023-02-18T11:31:45;0.30;;;0.20;;
43664;SDS011;29263;48.172;11.484;2023-02-18T11:36:46;0.22;;;0.22;;
43664;SDS011;29263;48.172;11.484;2023-02-18T11:39:24;0.40;;;0.40;;
43664;SDS011;29263;48.172;11.484;2023-02-18T11:42:04;2.58;;;0.35;;
43664;SDS011;29263;48.172;11.484;2023-02-18T11:44:34;0.40;;;0.30;;
43664;SDS011;29263;48.172;11.484;2023-02-18T11:52:48;0.20;;;0.20;;
43664;SDS011;29263;48.172;11.484;2023-02-18T11:57:55;0.65;;;0.17;;
43664;SDS011;29263;48.172;11.484;2023-02-18T12:00:38;0.10;;;0.10;;
43664;SDS011;29263;48.172;11.484;2023-02-18T12:03:12;0.40;;;0.20;;
43664;SDS011;29263;48.172;11.484;2023-02-18T12:05:46;0.30;;;0.30;;
43664;SDS011;29263;48.172;11.484;2023-02-18T12:08:23;0.50;;;0.40;;
43664;SDS011;29263;48.172;11.484;2023-02-18T12:10:53;0.47;;;0.30;;
43664;SDS011;29263;48.172;11.484;2023-02-18T12:16:44;1.38;;;0.30;;
43664;SDS011;29263;48.172;11.484;2023-02-18T12:19:16;0.65;;;0.30;;
43664;SDS011;29263;48.172;11.484;2023-02-18T12:27:00;1.20;;;0.55;;
43664;SDS011;29263;48.172;11.484;2023-02-18T12:48:37;0.50;;;0.40;;
43664;SDS011;29263;48.172;11.484;2023-02-18T12:51:17;2.25;;;0.50;;
43664;SDS011;29263;48.172;11.484;2023-02-18T12:53:51;0.60;;;0.40;;
43664;SDS011;29263;48.172;11.484;2023-02-18T12:59:14;1.98;;;0.38;;
43664;SDS011;29263;48.172;11.484;2023-02-18T13:02:02;0.40;;;0.20;;
43664;SDS011;29263;48.172;11.484;2023-02-18T13:07:29;0.60;;;0.40;;
43664;SDS011;29263;48.172;11.484;2023-02-18T13:15:45;2.38;;;0.30;;
43664;SDS011;29263;48.172;11.484;2023-02-18T13:18:23;0.93;;;0.25;;
43664;SDS011;29263;48.172;11.484;2023-02-18T13:20:54;0.85;;;0.60;;
43664;SDS011;29263;48.172;11.484;2023-02-18T13:23:39;2.05;;;0.40;;
43664;SDS011;29263;48.172;11.484;2023-02-18T13:26:18;0.85;;;0.50;;
43664;SDS011;29263;48.172;11.484;2023-02-18T13:28:50;0.88;;;0.35;;
43664;SDS011;29263;48.172;11.484;2023-02-18T13:31:38;0.68;;;0.40;;
43664;SDS011;29263;48.172;11.484;2023-02-18T13:39:52;0.77;;;0.30;;
43664;SDS011;29263;48.172;11.484;2023-02-18T13:42:24;3.17;;;0.40;;
43664;SDS011;29263;48.172;11.484;2023-02-18T13:53:13;0.88;;;0.40;;
43664;SDS011;29263;48.172;11.484;2023-02-18T13:56:01;2.28;;;0.50;;
43664;SDS011;29263;48.172;11.484;2023-02-18T13:59:11;0.22;;;0.20;;
43664;SDS011;29263;48.172;11.484;2023-02-18T14:04:01;1.77;;;0.50;;
43664;SDS011;29263;48.172;11.484;2023-02-18T14:06:36;1.35;;;0.40;;
43664;SDS011;29263;48.172;11.484;2023-02-18T14:09:35;1.05;;;0.30;;
43664;SDS011;29263;48.172;11.484;2023-02-18T14:12:16;2.08;;;0.50;;
43664;SDS011;29263;48.172;11.484;2023-02-18T14:14:48;1.75;;;0.40;;
43664;SDS011;29263;48.172;11.484;2023-02-18T14:19:42;0.50;;;0.45;;
43664;SDS011;29263;48.172;11.484;2023-02-18T14:27:31;0.52;;;0.45;;
43664;SDS011;29263;48.172;11.484;2023-02-18T14:30:01;1.80;;;0.40;;
43664;SDS011;29263;48.172;11.484;2023-02-18T14:32:39;0.32;;;0.32;;
43664;SDS011;29263;48.172;11.484;2023-02-18T14:46:11;0.50;;;0.40;;
43664;SDS011;29263;48.172;11.484;2023-02-18T14:49:05;0.75;;;0.30;;
43664;SDS011;29263;48.172;11.484;2023-02-18T14:51:50;0.50;;;0.40;;
43664;SDS011;29263;48.172;11.484;2023-02-18T14:54:18;0.60;;;0.30;;
43664;SDS011;29263;48.172;11.484;2023-02-18T14:57:06;0.38;;;0.30;;
43664;SDS011;29263;48.172;11.484;2023-02-18T14:59:34;1.80;;;0.43;;
43664;SDS011;29263;48.172;11.484;2023-02-18T15:02:08;0.40;;;0.40;;
43664;SDS011;29263;48.172;11.484;2023-02-18T15:04:51;2.22;;;0.50;;
43664;SDS011;29263;48.172;11.484;2023-02-18T15:07:18;1.08;;;0.40;;
43664;SDS011;29263;48.172;11.484;2023-02-18T15:09:51;0.60;;;0.32;;
43664;SDS011;29263;48.172;11.484;2023-02-18T15:12:19;1.63;;;0.20;;
43664;SDS011;29263;48.172;11.484;2023-02-18T15:14:48;0.32;;;0.32;;
43664;SDS011;29263;48.172;11.484;2023-02-18T15:17:17;0.52;;;0.30;;
43664;SDS011;29263;48.172;11.484;2023-02-18T15:19:48;0.43;;;0.38;;
43664;SDS011;29263;48.172;11.484;2023-02-18T15:22:18;1.95;;;0.40;;
43664;SDS011;29263;48.172;11.484;2023-02-18T15:24:48;1.60;;;0.20;;
43664;SDS011;29263;48.172;11.484;2023-02-18T15:27:37;0.35;;;0.25;;
43664;SDS011;29263;48.172;11.484;2023-02-18T15:30:25;0.85;;;0.32;;
43664;SDS011;29263;48.172;11.484;2023-02-18T15:32:55;0.55;;;0.32;;
43664;SDS011;29263;48.172;11.484;2023-02-18T15:35:26;1.40;;;0.38;;
43664;SDS011;29263;48.172;11.484;2023-02-18T15:37:57;0.95;;;0.32;;
43664;SDS011;29263;48.172;11.484;2023-02-18T15:40:25;0.20;;;0.20;;
43664;SDS011;29263;48.172;11.484;2023-02-18T15:42:57;0.98;;;0.30;;
43664;SDS011;29263;48.172;11.484;2023-02-18T15:45:32;1.40;;;0.30;;
43664;SDS011;29263;48.172;11.484;2023-02-18T15:48:03;0.30;;;0.30;;
43664;SDS011;29263;48.172;11.484;2023-02-18T15:50:31;1.05;;;0.40;;
43664;SDS011;29263;48.172;11.484;2023-02-18T15:53:03;0.32;;;0.22;;
43664;SDS011;29263;48.172;11.484;2023-02-18T15:55:33;0.77;;;0.40;;
43664;SDS011;29263;48.172;11.484;2023-02-18T15:58:03;0.93;;;0.30;;
43664;SDS011;29263;48.172;11.484;2023-02-18T16:00:46;0.50;;;0.40;;
43664;SDS011;29263;48.172;11.484;2023-02-18T16:03:19;1.05;;;0.30;;
43664;SDS011;29263;48.172;11.484;2023-02-18T16:06:12;1.38;;;0.45;;
43664;SDS011;29263;48.172;11.484;2023-02-18T16:08:45;0.55;;;0.30;;
43664;SDS011;29263;48.172;11.484;2023-02-18T16:11:24;0.60;;;0.40;;
43664;SDS011;29263;48.172;11.484;2023-02-18T16:13:53;0.52;;;0.28;;
43664;SDS011;29263;48.172;11.484;2023-02-18T16:16:23;0.40;;;0.32;;
43664;SDS011;29263;48.172;11.484;2023-02-18T16:18:53;0.47;;;0.40;;
43664;SDS011;29263;48.172;11.484;2023-02-18T16:23:45;0.60;;;0.40;;
43664;SDS011;29263;48.172;11.484;2023-02-18T16:29:06;1.30;;;0.30;;
43664;SDS011;29263;48.172;11.484;2023-02-18T16:31:36;0.43;;;0.30;;
43664;SDS011;29263;48.172;11.484;2023-02-18T16:34:02;0.40;;;0.32;;
43664;SDS011;29263;48.172;11.484;2023-02-18T16:36:28;1.13;;;0.50;;
43664;SDS011;29263;48.172;11.484;2023-02-18T16:38:54;0.40;;;0.30;;
43664;SDS011;29263;48.172;11.484;2023-02-18T16:41:20;0.40;;;0.28;;
43664;SDS011;29263;48.172;11.484;2023-02-18T16:43:45;0.40;;;0.40;;
43664;SDS011;29263;48.172;11.484;2023-02-18T16:46:15;0.47;;;0.35;;
43664;SDS011;29263;48.172;11.484;2023-02-18T16:48:43;0.85;;;0.40;;
43664;SDS011;29263;48.172;11.484;2023-02-18T16:51:14;0.40;;;0.32;;
43664;SDS011;29263;48.172;11.484;2023-02-18T16:53:43;0.50;;;0.50;;
43664;SDS011;29263;48.172;11.484;2023-02-18T16:56:15;2.55;;;0.55;;
43664;SDS011;29263;48.172;11.484;2023-02-18T16:58:51;2.33;;;0.65;;
43664;SDS011;29263;48.172;11.484;2023-02-18T17:03:48;0.73;;;0.55;;
43664;SDS011;29263;48.172;11.484;2023-02-18T17:06:15;0.88;;;0.50;;
43664;SDS011;29263;48.172;11.484;2023-02-18T17:08:40;1.38;;;0.40;;
43664;SDS011;29263;48.172;11.484;2023-02-18T17:11:08;0.70;;;0.55;;
43664;SDS011;29263;48.172;11.484;2023-02-18T17:13:45;0.85;;;0.60;;
43664;SDS011;29263;48.172;11.484;2023-02-18T17:16:12;0.77;;;0.55;;
43664;SDS011;29263;48.172;11.484;2023-02-18T17:18:38;0.45;;;0.40;;
43664;SDS011;29263;48.172;11.484;2023-02-18T17:21:04;1.02;;;0.45;;
43664;SDS011;29263;48.172;11.484;2023-02-18T17:23:30;0.70;;;0.70;;